sensor_id;sensor_type;location;lat;lon;timestamp;pressure;altitude;pressure_sealevel;temperature;humidity
47080;BME280;33067;49.296;14.470;2022-08-14T00:00:23;96719.32;;;24.40;40.76
47080;BME280;33067;49.296;14.470;2022-08-14T00:02:48;96717.80;;;24.60;40.57
47080;BME280;33067;49.296;14.470;2022-08-14T00:05:17;96710.15;;;24.50;40.72
47080;BME280;33067;49.296;14.470;2022-08-14T00:07:39;96704.49;;;24.68;40.48
47080;BME280;33067;49.296;14.470;2022-08-14T00:10:08;96703.73;;;24.71;40.53
47080;BME280;33067;49.296;14.470;2022-08-14T00:12:31;96702.18;;;24.72;40.78
47080;BME280;33067;49.296;14.470;2022-08-14T00:14:56;96701.77;;;24.76;40.77
47080;BME280;33067;49.296;14.470;2022-08-14T00:17:22;96696.64;;;24.87;40.51
47080;BME280;33067;49.296;14.470;2022-08-14T00:19:47;96696.27;;;24.73;40.24
47080;BME280;33067;49.296;14.470;2022-08-14T00:22:13;96696.17;;;24.63;40.23
47080;BME280;33067;49.296;14.470;2022-08-14T00:24:39;96697.68;;;24.77;40.42
47080;BME280;33067;49.296;14.470;2022-08-14T00:27:04;96697.10;;;24.22;40.63
47080;BME280;33067;49.296;14.470;2022-08-14T00:29:30;96695.73;;;24.51;40.55
47080;BME280;33067;49.296;14.470;2022-08-14T00:31:55;96696.53;;;24.91;40.76
47080;BME280;33067;49.296;14.470;2022-08-14T00:34:20;96695.64;;;24.47;40.67
47080;BME280;33067;49.296;14.470;2022-08-14T00:36:46;96694.83;;;24.56;40.40
47080;BME280;33067;49.296;14.470;2022-08-14T00:39:13;96694.37;;;24.48;40.50
47080;BME280;33067;49.296;14.470;2022-08-14T00:41:37;96694.86;;;24.70;40.47
47080;BME280;33067;49.296;14.470;2022-08-14T00:44:02;96691.10;;;24.32;40.67
47080;BME280;33067;49.296;14.470;2022-08-14T00:46:28;96689.70;;;24.34;40.62
47080;BME280;33067;49.296;14.470;2022-08-14T00:48:54;96688.32;;;24.40;40.59
47080;BME280;33067;49.296;14.470;2022-08-14T00:51:19;96687.66;;;24.46;40.62
47080;BME280;33067;49.296;14.470;2022-08-14T00:53:44;96690.24;;;24.53;40.56
47080;BME280;33067;49.296;14.470;2022-08-14T00:56:10;96691.07;;;24.50;40.59
47080;BME280;33067;49.296;14.470;2022-08-14T00:58:36;96690.65;;;24.74;40.63
47080;BME280;33067;49.296;14.470;2022-08-14T01:01:04;96689.77;;;24.50;40.61
47080;BME280;33067;49.296;14.470;2022-08-14T01:03:27;96692.16;;;24.46;40.62
47080;BME280;33067;49.296;14.470;2022-08-14T01:05:54;96692.16;;;24.48;40.60
47080;BME280;33067;49.296;14.470;2022-08-14T01:08:20;96693.30;;;24.48;40.53
47080;BME280;33067;49.296;14.470;2022-08-14T01:10:44;96693.76;;;24.50;40.54
47080;BME280;33067;49.296;14.470;2022-08-14T01:13:09;96693.41;;;24.70;40.50
47080;BME280;33067;49.296;14.470;2022-08-14T01:15:35;96693.17;;;24.47;40.43
47080;BME280;33067;49.296;14.470;2022-08-14T01:18:00;96696.35;;;24.37;40.53
47080;BME280;33067;49.296;14.470;2022-08-14T01:20:26;96699.22;;;24.12;40.78
47080;BME280;33067;49.296;14.470;2022-08-14T01:22:51;96702.88;;;23.89;41.10
47080;BME280;33067;49.296;14.470;2022-08-14T01:25:17;96704.73;;;24.20;40.96
47080;BME280;33067;49.296;14.470;2022-08-14T01:27:42;96704.12;;;24.22;40.95
47080;BME280;33067;49.296;14.470;2022-08-14T01:30:09;96702.37;;;24.06;40.88
47080;BME280;33067;49.296;14.470;2022-08-14T01:32:33;96698.97;;;24.40;41.05
47080;BME280;33067;49.296;14.470;2022-08-14T01:34:59;96700.87;;;24.38;41.04
47080;BME280;33067;49.296;14.470;2022-08-14T01:37:24;96699.03;;;23.88;41.35
47080;BME280;33067;49.296;14.470;2022-08-14T01:39:50;96697.82;;;24.14;41.40
47080;BME280;33067;49.296;14.470;2022-08-14T01:42:15;96693.54;;;24.22;41.26
47080;BME280;33067;49.296;14.470;2022-08-14T01:44:41;96696.19;;;24.00;41.23
47080;BME280;33067;49.296;14.470;2022-08-14T01:47:08;96699.96;;;24.32;41.06
47080;BME280;33067;49.296;14.470;2022-08-14T01:49:32;96697.95;;;24.29;41.03
47080;BME280;33067;49.296;14.470;2022-08-14T01:51:58;96691.19;;;24.01;41.03
47080;BME280;33067;49.296;14.470;2022-08-14T01:54:24;96690.80;;;24.20;41.02
47080;BME280;33067;49.296;14.470;2022-08-14T01:56:50;96692.73;;;24.20;40.94
47080;BME280;33067;49.296;14.470;2022-08-14T01:59:19;96694.21;;;23.59;41.27
47080;BME280;33067;49.296;14.470;2022-08-14T02:01:40;96691.83;;;23.79;41.25
47080;BME280;33067;49.296;14.470;2022-08-14T02:04:06;96695.04;;;23.56;41.13
47080;BME280;33067;49.296;14.470;2022-08-14T02:06:32;96695.29;;;23.73;41.28
47080;BME280;33067;49.296;14.470;2022-08-14T02:08:57;96692.74;;;23.69;41.35
47080;BME280;33067;49.296;14.470;2022-08-14T02:13:00;96686.74;;;24.02;40.89
47080;BME280;33067;49.296;14.470;2022-08-14T02:15:26;96682.89;;;23.50;41.38
47080;BME280;33067;49.296;14.470;2022-08-14T02:17:50;96684.83;;;23.69;41.47
47080;BME280;33067;49.296;14.470;2022-08-14T02:20:16;96685.96;;;23.70;41.41
47080;BME280;33067;49.296;14.470;2022-08-14T02:22:42;96686.22;;;23.62;41.47
47080;BME280;33067;49.296;14.470;2022-08-14T02:25:07;96685.63;;;23.86;41.53
47080;BME280;33067;49.296;14.470;2022-08-14T02:27:32;96685.38;;;23.61;41.74
47080;BME280;33067;49.296;14.470;2022-08-14T02:29:58;96684.38;;;23.67;41.58
47080;BME280;33067;49.296;14.470;2022-08-14T02:32:23;96684.74;;;23.72;41.52
47080;BME280;33067;49.296;14.470;2022-08-14T02:34:48;96681.43;;;23.75;41.40
47080;BME280;33067;49.296;14.470;2022-08-14T02:37:14;96682.04;;;23.69;41.38
47080;BME280;33067;49.296;14.470;2022-08-14T02:39:41;96681.97;;;23.66;41.49
47080;BME280;33067;49.296;14.470;2022-08-14T02:42:06;96680.19;;;23.65;41.34
47080;BME280;33067;49.296;14.470;2022-08-14T02:44:31;96676.24;;;23.78;41.47
47080;BME280;33067;49.296;14.470;2022-08-14T02:46:56;96674.37;;;23.43;41.62
47080;BME280;33067;49.296;14.470;2022-08-14T02:49:22;96674.29;;;23.35;41.69
47080;BME280;33067;49.296;14.470;2022-08-14T02:51:47;96673.92;;;23.18;41.90
47080;BME280;33067;49.296;14.470;2022-08-14T02:54:12;96665.24;;;23.52;41.86
47080;BME280;33067;49.296;14.470;2022-08-14T02:56:37;96665.90;;;23.29;41.97
47080;BME280;33067;49.296;14.470;2022-08-14T02:59:05;96665.49;;;23.40;41.64
47080;BME280;33067;49.296;14.470;2022-08-14T03:01:29;96664.33;;;23.21;41.89
47080;BME280;33067;49.296;14.470;2022-08-14T03:03:54;96666.90;;;23.15;41.86
47080;BME280;33067;49.296;14.470;2022-08-14T03:06:19;96665.48;;;23.15;41.84
47080;BME280;33067;49.296;14.470;2022-08-14T03:08:45;96662.56;;;23.13;41.83
47080;BME280;33067;49.296;14.470;2022-08-14T03:11:11;96655.87;;;23.18;41.72
47080;BME280;33067;49.296;14.470;2022-08-14T03:13:37;96652.86;;;23.63;41.72
47080;BME280;33067;49.296;14.470;2022-08-14T03:16:01;96655.06;;;23.15;41.63
47080;BME280;33067;49.296;14.470;2022-08-14T03:18:27;96657.90;;;23.19;41.80
47080;BME280;33067;49.296;14.470;2022-08-14T03:20:51;96659.90;;;23.06;41.94
47080;BME280;33067;49.296;14.470;2022-08-14T03:23:16;96660.84;;;23.39;41.94
47080;BME280;33067;49.296;14.470;2022-08-14T03:25:41;96659.92;;;23.42;41.77
47080;BME280;33067;49.296;14.470;2022-08-14T03:28:08;96657.90;;;22.84;41.91
47080;BME280;33067;49.296;14.470;2022-08-14T03:30:33;96657.56;;;22.82;41.81
47080;BME280;33067;49.296;14.470;2022-08-14T03:32:58;96660.53;;;22.91;42.11
47080;BME280;33067;49.296;14.470;2022-08-14T03:35:23;96661.41;;;22.91;42.03
47080;BME280;33067;49.296;14.470;2022-08-14T03:37:49;96659.08;;;22.91;42.06
47080;BME280;33067;49.296;14.470;2022-08-14T03:40:14;96659.40;;;23.11;42.13
47080;BME280;33067;49.296;14.470;2022-08-14T03:42:40;96663.45;;;22.97;42.48
47080;BME280;33067;49.296;14.470;2022-08-14T03:45:06;96661.25;;;23.07;42.24
47080;BME280;33067;49.296;14.470;2022-08-14T03:47:31;96658.63;;;22.96;42.39
47080;BME280;33067;49.296;14.470;2022-08-14T03:49:56;96657.30;;;22.78;42.30
47080;BME280;33067;49.296;14.470;2022-08-14T03:52:22;96656.16;;;22.97;42.47
47080;BME280;33067;49.296;14.470;2022-08-14T03:54:47;96655.35;;;22.76;42.47
47080;BME280;33067;49.296;14.470;2022-08-14T03:57:13;96655.31;;;22.73;42.50
47080;BME280;33067;49.296;14.470;2022-08-14T03:59:39;96654.67;;;22.76;42.48
47080;BME280;33067;49.296;14.470;2022-08-14T04:02:04;96651.49;;;22.81;42.48
47080;BME280;33067;49.296;14.470;2022-08-14T04:04:31;96645.18;;;22.83;42.42
47080;BME280;33067;49.296;14.470;2022-08-14T04:06:56;96644.09;;;22.86;42.43
47080;BME280;33067;49.296;14.470;2022-08-14T04:09:20;96641.41;;;22.65;42.28
47080;BME280;33067;49.296;14.470;2022-08-14T04:11:46;96644.98;;;23.01;42.36
47080;BME280;33067;49.296;14.470;2022-08-14T04:14:11;96642.03;;;22.54;42.72
47080;BME280;33067;49.296;14.470;2022-08-14T04:16:37;96639.30;;;22.78;42.60
47080;BME280;33067;49.296;14.470;2022-08-14T04:19:03;96642.52;;;22.79;42.45
47080;BME280;33067;49.296;14.470;2022-08-14T04:21:28;96646.33;;;22.57;42.55
47080;BME280;33067;49.296;14.470;2022-08-14T04:23:55;96646.97;;;22.49;42.74
47080;BME280;33067;49.296;14.470;2022-08-14T04:26:19;96649.42;;;22.43;42.81
47080;BME280;33067;49.296;14.470;2022-08-14T04:28:44;96651.19;;;22.43;42.73
47080;BME280;33067;49.296;14.470;2022-08-14T04:31:09;96650.92;;;22.33;43.06
47080;BME280;33067;49.296;14.470;2022-08-14T04:33:34;96650.20;;;22.33;43.24
47080;BME280;33067;49.296;14.470;2022-08-14T04:36:00;96651.30;;;22.34;43.39
47080;BME280;33067;49.296;14.470;2022-08-14T04:38:25;96653.42;;;22.41;43.33
47080;BME280;33067;49.296;14.470;2022-08-14T04:40:51;96650.29;;;22.41;43.47
47080;BME280;33067;49.296;14.470;2022-08-14T04:43:16;96653.61;;;22.53;43.28
47080;BME280;33067;49.296;14.470;2022-08-14T04:45:43;96654.86;;;22.51;43.49
47080;BME280;33067;49.296;14.470;2022-08-14T04:48:09;96656.57;;;22.50;43.39
47080;BME280;33067;49.296;14.470;2022-08-14T04:50:33;96653.20;;;22.52;43.35
47080;BME280;33067;49.296;14.470;2022-08-14T04:52:58;96653.07;;;22.61;43.28
47080;BME280;33067;49.296;14.470;2022-08-14T04:55:23;96655.81;;;22.63;43.28
47080;BME280;33067;49.296;14.470;2022-08-14T04:57:49;96652.51;;;22.38;43.43
47080;BME280;33067;49.296;14.470;2022-08-14T05:00:15;96651.83;;;22.65;43.41
47080;BME280;33067;49.296;14.470;2022-08-14T05:02:40;96653.87;;;22.41;43.57
47080;BME280;33067;49.296;14.470;2022-08-14T05:05:06;96653.34;;;22.68;43.56
47080;BME280;33067;49.296;14.470;2022-08-14T05:07:31;96651.71;;;22.72;43.53
47080;BME280;33067;49.296;14.470;2022-08-14T05:09:57;96647.25;;;22.76;43.43
47080;BME280;33067;49.296;14.470;2022-08-14T05:12:23;96644.13;;;22.37;43.83
47080;BME280;33067;49.296;14.470;2022-08-14T05:14:48;96639.63;;;22.54;44.02
47080;BME280;33067;49.296;14.470;2022-08-14T05:17:14;96641.59;;;22.72;43.79
47080;BME280;33067;49.296;14.470;2022-08-14T05:19:40;96635.50;;;22.66;44.07
47080;BME280;33067;49.296;14.470;2022-08-14T05:22:05;96632.83;;;22.81;43.94
47080;BME280;33067;49.296;14.470;2022-08-14T05:24:30;96636.92;;;22.91;43.77
47080;BME280;33067;49.296;14.470;2022-08-14T05:26:56;96635.51;;;22.90;43.41
47080;BME280;33067;49.296;14.470;2022-08-14T05:29:21;96638.22;;;22.89;43.28
47080;BME280;33067;49.296;14.470;2022-08-14T05:31:46;96635.38;;;23.00;43.14
47080;BME280;33067;49.296;14.470;2022-08-14T05:34:12;96632.56;;;22.98;43.14
47080;BME280;33067;49.296;14.470;2022-08-14T05:36:37;96628.37;;;22.78;43.15
47080;BME280;33067;49.296;14.470;2022-08-14T05:39:04;96627.61;;;22.55;43.20
47080;BME280;33067;49.296;14.470;2022-08-14T05:41:28;96627.28;;;23.06;43.20
47080;BME280;33067;49.296;14.470;2022-08-14T05:43:53;96625.63;;;22.82;43.31
47080;BME280;33067;49.296;14.470;2022-08-14T05:46:19;96624.36;;;23.14;43.26
47080;BME280;33067;49.296;14.470;2022-08-14T05:48:47;96620.25;;;22.79;43.18
47080;BME280;33067;49.296;14.470;2022-08-14T05:51:09;96617.65;;;23.10;43.16
47080;BME280;33067;49.296;14.470;2022-08-14T05:53:35;96620.59;;;22.88;42.91
47080;BME280;33067;49.296;14.470;2022-08-14T05:56:02;96621.62;;;23.38;42.55
47080;BME280;33067;49.296;14.470;2022-08-14T05:58:26;96619.34;;;23.31;42.65
47080;BME280;33067;49.296;14.470;2022-08-14T06:00:53;96614.78;;;23.32;42.65
47080;BME280;33067;49.296;14.470;2022-08-14T06:03:19;96616.60;;;23.49;42.88
47080;BME280;33067;49.296;14.470;2022-08-14T06:05:45;96613.12;;;23.46;43.03
47080;BME280;33067;49.296;14.470;2022-08-14T06:08:15;96617.35;;;23.13;42.97
47080;BME280;33067;49.296;14.470;2022-08-14T06:10:34;96617.37;;;23.26;42.96
47080;BME280;33067;49.296;14.470;2022-08-14T06:13:00;96618.46;;;23.61;42.82
47080;BME280;33067;49.296;14.470;2022-08-14T06:15:26;96616.71;;;23.64;42.79
47080;BME280;33067;49.296;14.470;2022-08-14T06:17:52;96610.59;;;23.72;42.74
47080;BME280;33067;49.296;14.470;2022-08-14T06:20:17;96608.40;;;23.72;42.76
47080;BME280;33067;49.296;14.470;2022-08-14T06:22:43;96607.45;;;23.53;42.77
47080;BME280;33067;49.296;14.470;2022-08-14T06:25:09;96604.64;;;23.58;42.89
47080;BME280;33067;49.296;14.470;2022-08-14T06:27:35;96604.50;;;23.60;42.98
47080;BME280;33067;49.296;14.470;2022-08-14T06:29:58;96599.76;;;23.69;42.79
47080;BME280;33067;49.296;14.470;2022-08-14T06:32:24;96597.26;;;23.78;42.84
47080;BME280;33067;49.296;14.470;2022-08-14T06:34:49;96594.86;;;23.50;42.90
47080;BME280;33067;49.296;14.470;2022-08-14T06:37:14;96592.35;;;23.65;43.22
47080;BME280;33067;49.296;14.470;2022-08-14T06:39:40;96588.88;;;23.99;43.09
47080;BME280;33067;49.296;14.470;2022-08-14T06:42:05;96586.94;;;23.82;42.75
47080;BME280;33067;49.296;14.470;2022-08-14T06:44:31;96587.10;;;23.59;42.72
47080;BME280;33067;49.296;14.470;2022-08-14T06:46:56;96588.90;;;23.58;42.92
47080;BME280;33067;49.296;14.470;2022-08-14T06:49:24;96586.18;;;23.87;43.12
47080;BME280;33067;49.296;14.470;2022-08-14T06:51:47;96586.57;;;23.96;43.09
47080;BME280;33067;49.296;14.470;2022-08-14T06:54:12;96586.03;;;24.05;42.98
47080;BME280;33067;49.296;14.470;2022-08-14T06:56:38;96583.69;;;24.09;42.99
47080;BME280;33067;49.296;14.470;2022-08-14T06:59:03;96584.82;;;23.94;43.04
47080;BME280;33067;49.296;14.470;2022-08-14T07:01:29;96584.53;;;24.06;42.99
47080;BME280;33067;49.296;14.470;2022-08-14T07:03:55;96585.77;;;23.94;43.06
47080;BME280;33067;49.296;14.470;2022-08-14T07:06:20;96587.79;;;24.07;42.90
47080;BME280;33067;49.296;14.470;2022-08-14T07:08:46;96586.82;;;24.23;42.76
47080;BME280;33067;49.296;14.470;2022-08-14T07:11:11;96592.30;;;24.42;42.67
47080;BME280;33067;49.296;14.470;2022-08-14T07:13:36;96590.24;;;24.60;42.90
47080;BME280;33067;49.296;14.470;2022-08-14T07:16:02;96591.03;;;24.55;43.02
47080;BME280;33067;49.296;14.470;2022-08-14T07:18:29;96589.19;;;24.65;43.13
47080;BME280;33067;49.296;14.470;2022-08-14T07:20:54;96586.57;;;24.83;42.94
47080;BME280;33067;49.296;14.470;2022-08-14T07:23:19;96589.18;;;24.87;42.99
47080;BME280;33067;49.296;14.470;2022-08-14T07:25:45;96589.80;;;24.47;43.21
47080;BME280;33067;49.296;14.470;2022-08-14T07:28:11;96592.64;;;24.55;43.37
47080;BME280;33067;49.296;14.470;2022-08-14T07:30:37;96591.89;;;24.67;43.14
47080;BME280;33067;49.296;14.470;2022-08-14T07:33:01;96593.10;;;24.50;43.41
47080;BME280;33067;49.296;14.470;2022-08-14T07:35:26;96593.22;;;24.36;43.54
47080;BME280;33067;49.296;14.470;2022-08-14T07:37:51;96592.96;;;24.43;43.18
47080;BME280;33067;49.296;14.470;2022-08-14T07:40:17;96595.18;;;24.74;42.84
47080;BME280;33067;49.296;14.470;2022-08-14T07:42:43;96593.71;;;24.94;42.64
47080;BME280;33067;49.296;14.470;2022-08-14T07:45:10;96595.44;;;24.78;42.83
47080;BME280;33067;49.296;14.470;2022-08-14T07:47:39;96596.29;;;24.44;43.83
47080;BME280;33067;49.296;14.470;2022-08-14T07:50:05;96604.25;;;24.62;43.83
47080;BME280;33067;49.296;14.470;2022-08-14T07:52:26;96602.52;;;23.45;45.27
47080;BME280;33067;49.296;14.470;2022-08-14T07:54:51;96607.70;;;24.04;45.11
47080;BME280;33067;49.296;14.470;2022-08-14T07:57:17;96606.75;;;23.81;45.53
47080;BME280;33067;49.296;14.470;2022-08-14T07:59:42;96607.87;;;23.92;46.40
47080;BME280;33067;49.296;14.470;2022-08-14T08:02:08;96604.29;;;23.70;46.15
47080;BME280;33067;49.296;14.470;2022-08-14T08:04:34;96603.39;;;23.86;46.69
47080;BME280;33067;49.296;14.470;2022-08-14T08:06:58;96604.63;;;23.31;47.55
47080;BME280;33067;49.296;14.470;2022-08-14T08:09:25;96608.74;;;23.57;47.05
47080;BME280;33067;49.296;14.470;2022-08-14T08:11:48;96608.26;;;23.64;47.25
47080;BME280;33067;49.296;14.470;2022-08-14T08:14:14;96611.02;;;23.77;46.72
47080;BME280;33067;49.296;14.470;2022-08-14T08:16:40;96609.05;;;23.97;46.29
47080;BME280;33067;49.296;14.470;2022-08-14T08:19:06;96612.46;;;23.32;46.49
47080;BME280;33067;49.296;14.470;2022-08-14T08:21:31;96614.01;;;23.75;46.49
47080;BME280;33067;49.296;14.470;2022-08-14T08:23:57;96617.15;;;23.02;47.02
47080;BME280;33067;49.296;14.470;2022-08-14T08:26:28;96626.45;;;23.46;46.69
47080;BME280;33067;49.296;14.470;2022-08-14T08:28:54;96622.37;;;23.57;46.70
47080;BME280;33067;49.296;14.470;2022-08-14T08:31:14;96623.48;;;23.72;46.36
47080;BME280;33067;49.296;14.470;2022-08-14T08:33:40;96619.63;;;23.89;46.09
47080;BME280;33067;49.296;14.470;2022-08-14T08:36:07;96624.15;;;22.15;49.41
47080;BME280;33067;49.296;14.470;2022-08-14T08:38:30;96622.40;;;23.25;47.76
47080;BME280;33067;49.296;14.470;2022-08-14T08:40:58;96621.69;;;22.86;48.47
47080;BME280;33067;49.296;14.470;2022-08-14T08:43:23;96623.68;;;23.31;48.07
47080;BME280;33067;49.296;14.470;2022-08-14T08:45:53;96627.24;;;23.62;47.32
47080;BME280;33067;49.296;14.470;2022-08-14T08:48:12;96623.08;;;23.52;47.68
47080;BME280;33067;49.296;14.470;2022-08-14T08:50:38;96626.97;;;23.39;47.71
47080;BME280;33067;49.296;14.470;2022-08-14T08:53:05;96623.32;;;23.27;48.26
47080;BME280;33067;49.296;14.470;2022-08-14T08:55:32;96619.79;;;23.50;47.75
47080;BME280;33067;49.296;14.470;2022-08-14T08:57:56;96619.52;;;23.53;47.75
47080;BME280;33067;49.296;14.470;2022-08-14T09:00:20;96613.54;;;23.63;47.29
47080;BME280;33067;49.296;14.470;2022-08-14T09:02:52;96609.06;;;22.98;48.25
47080;BME280;33067;49.296;14.470;2022-08-14T09:05:11;96607.82;;;23.48;47.20
47080;BME280;33067;49.296;14.470;2022-08-14T09:07:36;96602.75;;;23.52;47.03
47080;BME280;33067;49.296;14.470;2022-08-14T09:10:02;96609.17;;;23.12;47.16
47080;BME280;33067;49.296;14.470;2022-08-14T09:12:27;96604.97;;;23.39;47.54
47080;BME280;33067;49.296;14.470;2022-08-14T09:14:52;96599.24;;;23.36;48.16
47080;BME280;33067;49.296;14.470;2022-08-14T09:17:18;96592.24;;;23.57;46.50
47080;BME280;33067;49.296;14.470;2022-08-14T09:19:44;96588.63;;;23.94;46.56
47080;BME280;33067;49.296;14.470;2022-08-14T09:22:09;96589.10;;;23.56;46.68
47080;BME280;33067;49.296;14.470;2022-08-14T09:24:34;96588.31;;;24.01;46.73
47080;BME280;33067;49.296;14.470;2022-08-14T09:27:00;96587.20;;;23.88;46.51
47080;BME280;33067;49.296;14.470;2022-08-14T09:29:26;96582.65;;;23.85;46.63
47080;BME280;33067;49.296;14.470;2022-08-14T09:31:53;96580.78;;;23.89;46.83
47080;BME280;33067;49.296;14.470;2022-08-14T09:34:28;96578.93;;;24.22;46.97
47080;BME280;33067;49.296;14.470;2022-08-14T09:36:56;96577.07;;;23.91;47.11
47080;BME280;33067;49.296;14.470;2022-08-14T09:39:16;96574.99;;;24.06;45.80
47080;BME280;33067;49.296;14.470;2022-08-14T09:41:41;96573.02;;;24.43;45.88
47080;BME280;33067;49.296;14.470;2022-08-14T09:44:04;96568.38;;;24.13;46.19
47080;BME280;33067;49.296;14.470;2022-08-14T09:46:23;96567.19;;;24.19;46.45
47080;BME280;33067;49.296;14.470;2022-08-14T09:48:58;96563.70;;;24.37;46.51
47080;BME280;33067;49.296;14.470;2022-08-14T09:51:21;96556.44;;;24.48;45.73
47080;BME280;33067;49.296;14.470;2022-08-14T09:53:42;96553.21;;;24.45;46.03
47080;BME280;33067;49.296;14.470;2022-08-14T09:56:06;96548.80;;;24.65;45.97
47080;BME280;33067;49.296;14.470;2022-08-14T09:58:37;96543.94;;;24.57;46.08
47080;BME280;33067;49.296;14.470;2022-08-14T10:00:56;96535.31;;;24.89;45.56
47080;BME280;33067;49.296;14.470;2022-08-14T10:03:27;96532.33;;;24.70;45.62
47080;BME280;33067;49.296;14.470;2022-08-14T10:08:20;96527.44;;;24.95;45.67
47080;BME280;33067;49.296;14.470;2022-08-14T10:10:41;96526.65;;;25.19;45.23
47080;BME280;33067;49.296;14.470;2022-08-14T10:13:24;96525.13;;;25.33;45.63
47080;BME280;33067;49.296;14.470;2022-08-14T10:15:30;96518.00;;;25.65;45.90
47080;BME280;33067;49.296;14.470;2022-08-14T10:18:05;96512.03;;;25.16;44.03
47080;BME280;33067;49.296;14.470;2022-08-14T10:22:45;96511.95;;;25.33;43.80
47080;BME280;33067;49.296;14.470;2022-08-14T10:25:13;96513.42;;;25.13;44.23
47080;BME280;33067;49.296;14.470;2022-08-14T10:27:36;96512.75;;;25.48;43.82
47080;BME280;33067;49.296;14.470;2022-08-14T10:30:02;96514.53;;;25.51;44.42
47080;BME280;33067;49.296;14.470;2022-08-14T10:32:28;96513.93;;;25.93;45.01
47080;BME280;33067;49.296;14.470;2022-08-14T10:35:05;96513.99;;;25.52;43.53
47080;BME280;33067;49.296;14.470;2022-08-14T10:37:19;96507.86;;;25.72;43.74
47080;BME280;33067;49.296;14.470;2022-08-14T10:39:56;96505.52;;;26.02;43.09
47080;BME280;33067;49.296;14.470;2022-08-14T10:42:10;96504.45;;;25.76;43.29
47080;BME280;33067;49.296;14.470;2022-08-14T10:44:36;96504.08;;;26.03;42.45
47080;BME280;33067;49.296;14.470;2022-08-14T10:47:00;96503.77;;;25.06;42.44
47080;BME280;33067;49.296;14.470;2022-08-14T10:49:26;96500.95;;;25.42;42.91
47080;BME280;33067;49.296;14.470;2022-08-14T10:51:56;96498.05;;;25.50;42.63
47080;BME280;33067;49.296;14.470;2022-08-14T10:54:16;96496.66;;;25.25;42.95
47080;BME280;33067;49.296;14.470;2022-08-14T10:56:41;96497.97;;;25.21;42.54
47080;BME280;33067;49.296;14.470;2022-08-14T10:59:07;96493.54;;;25.71;42.23
47080;BME280;33067;49.296;14.470;2022-08-14T11:01:34;96496.23;;;25.78;42.70
47080;BME280;33067;49.296;14.470;2022-08-14T11:03:58;96493.74;;;25.94;42.19
47080;BME280;33067;49.296;14.470;2022-08-14T11:06:23;96491.95;;;26.21;41.50
47080;BME280;33067;49.296;14.470;2022-08-14T11:08:49;96497.26;;;25.01;41.73
47080;BME280;33067;49.296;14.470;2022-08-14T11:11:15;96490.85;;;24.81;41.36
47080;BME280;33067;49.296;14.470;2022-08-14T11:13:41;96497.54;;;24.88;40.94
47080;BME280;33067;49.296;14.470;2022-08-14T11:16:06;96492.69;;;25.48;40.84
47080;BME280;33067;49.296;14.470;2022-08-14T11:18:31;96491.14;;;25.89;40.30
47080;BME280;33067;49.296;14.470;2022-08-14T11:20:58;96489.63;;;25.39;40.77
47080;BME280;33067;49.296;14.470;2022-08-14T11:23:28;96484.28;;;25.54;39.80
47080;BME280;33067;49.296;14.470;2022-08-14T11:25:48;96485.78;;;26.10;39.47
47080;BME280;33067;49.296;14.470;2022-08-14T11:28:15;96484.37;;;26.01;39.26
47080;BME280;33067;49.296;14.470;2022-08-14T11:30:41;96479.90;;;26.47;38.65
47080;BME280;33067;49.296;14.470;2022-08-14T11:33:05;96473.59;;;26.63;39.23
47080;BME280;33067;49.296;14.470;2022-08-14T11:35:31;96468.87;;;26.82;38.41
47080;BME280;33067;49.296;14.470;2022-08-14T11:38:00;96465.33;;;26.53;38.50
47080;BME280;33067;49.296;14.470;2022-08-14T11:40:23;96462.85;;;26.48;38.37
47080;BME280;33067;49.296;14.470;2022-08-14T11:42:49;96463.87;;;26.89;39.17
47080;BME280;33067;49.296;14.470;2022-08-14T11:45:14;96459.93;;;26.86;38.46
47080;BME280;33067;49.296;14.470;2022-08-14T11:47:38;96455.84;;;26.79;37.81
47080;BME280;33067;49.296;14.470;2022-08-14T11:50:12;96452.86;;;26.90;37.94
47080;BME280;33067;49.296;14.470;2022-08-14T11:52:33;96445.54;;;27.12;38.27
47080;BME280;33067;49.296;14.470;2022-08-14T11:54:56;96444.63;;;26.90;38.12
47080;BME280;33067;49.296;14.470;2022-08-14T11:57:20;96446.63;;;26.80;38.30
47080;BME280;33067;49.296;14.470;2022-08-14T11:59:46;96449.88;;;26.95;37.60
47080;BME280;33067;49.296;14.470;2022-08-14T12:02:14;96451.43;;;27.00;38.23
47080;BME280;33067;49.296;14.470;2022-08-14T12:07:06;96443.01;;;27.83;37.49
47080;BME280;33067;49.296;14.470;2022-08-14T12:09:30;96440.54;;;28.06;37.84
47080;BME280;33067;49.296;14.470;2022-08-14T12:11:54;96434.60;;;28.20;36.43
47080;BME280;33067;49.296;14.470;2022-08-14T12:14:19;96432.82;;;28.36;36.26
47080;BME280;33067;49.296;14.470;2022-08-14T12:16:45;96432.55;;;28.28;36.47
47080;BME280;33067;49.296;14.470;2022-08-14T12:19:10;96429.10;;;28.81;35.36
47080;BME280;33067;49.296;14.470;2022-08-14T12:21:36;96429.20;;;28.93;35.85
47080;BME280;33067;49.296;14.470;2022-08-14T12:24:04;96429.02;;;28.33;34.96
47080;BME280;33067;49.296;14.470;2022-08-14T12:26:27;96417.32;;;28.90;34.64
47080;BME280;33067;49.296;14.470;2022-08-14T12:29:04;96412.64;;;28.85;35.19
47080;BME280;33067;49.296;14.470;2022-08-14T12:31:18;96412.42;;;28.91;34.65
47080;BME280;33067;49.296;14.470;2022-08-14T12:33:53;96413.52;;;29.51;34.24
47080;BME280;33067;49.296;14.470;2022-08-14T12:36:18;96410.77;;;29.29;33.54
47080;BME280;33067;49.296;14.470;2022-08-14T12:38:35;96406.15;;;28.98;34.32
47080;BME280;33067;49.296;14.470;2022-08-14T12:41:02;96403.27;;;28.57;34.26
47080;BME280;33067;49.296;14.470;2022-08-14T12:43:24;96402.33;;;28.45;34.94
47080;BME280;33067;49.296;14.470;2022-08-14T12:45:52;96403.65;;;28.83;35.51
47080;BME280;33067;49.296;14.470;2022-08-14T12:48:16;96404.34;;;28.99;34.95